createdAt,value
2016-12-20T00:00:47.117Z,5.77
2016-12-20T00:02:04.290Z,5.77
2016-12-20T00:03:20.791Z,5.82
2016-12-20T00:06:35.635Z,5.89
2016-12-20T00:07:51.889Z,5.88
2016-12-20T00:09:06.668Z,5.89
2016-12-20T00:10:22.932Z,5.88
2016-12-20T00:11:39.695Z,5.89
2016-12-20T00:12:55.953Z,5.88
2016-12-20T00:14:12.045Z,5.91
2016-12-20T00:15:26.878Z,5.92
2016-12-20T00:16:41.611Z,5.92
2016-12-20T00:17:56.109Z,5.96
2016-12-20T00:19:11.076Z,5.95
2016-12-20T00:20:25.667Z,5.93
2016-12-20T00:21:40.961Z,5.87
2016-12-20T00:22:56.233Z,5.83
2016-12-20T00:24:12.669Z,5.79
2016-12-20T00:25:29.496Z,5.78
2016-12-20T00:26:47.175Z,5.8
2016-12-20T00:28:04.535Z,5.8
2016-12-20T00:29:18.940Z,5.79
2016-12-20T00:30:36.296Z,5.75
2016-12-20T00:31:51.265Z,5.71
2016-12-20T00:33:06.420Z,5.66
2016-12-20T00:34:21.052Z,5.62
2016-12-20T00:35:35.448Z,5.58
2016-12-20T00:37:04.963Z,5.58
2016-12-20T00:38:20.190Z,5.59
2016-12-20T00:39:35.118Z,5.6
2016-12-20T00:40:49.897Z,5.6
2016-12-20T00:42:04.764Z,5.6
2016-12-20T00:43:19.193Z,5.61
2016-12-20T00:44:34.931Z,5.63
2016-12-20T00:45:49.498Z,5.65
2016-12-20T00:47:04.090Z,5.67
2016-12-20T00:48:18.836Z,5.7
2016-12-20T00:49:33.225Z,5.69
2016-12-20T00:50:47.616Z,5.67
2016-12-20T00:52:01.938Z,5.68
2016-12-20T00:53:16.820Z,5.65
2016-12-20T00:54:32.034Z,5.62
2016-12-20T00:55:47.139Z,5.59
2016-12-20T00:57:01.924Z,5.57
2016-12-20T00:58:16.456Z,5.5
2016-12-20T00:59:30.616Z,5.46
2016-12-20T01:00:45.527Z,5.43
2016-12-20T01:02:00.623Z,5.42
2016-12-20T01:05:29.656Z,5.42
2016-12-20T01:06:44.206Z,5.41
2016-12-20T01:07:59.077Z,5.42
2016-12-20T01:09:15.171Z,5.42
2016-12-20T01:10:30.409Z,5.42
2016-12-20T01:11:44.666Z,5.41
2016-12-20T01:12:59.267Z,5.41
2016-12-20T01:14:13.463Z,5.42
2016-12-20T01:15:28.178Z,5.43
2016-12-20T01:16:42.944Z,5.42
2016-12-20T01:17:57.138Z,5.42
2016-12-20T01:19:11.410Z,5.42
2016-12-20T01:20:26.165Z,5.4
2016-12-20T01:21:40.523Z,5.39
2016-12-20T01:22:54.971Z,5.36
2016-12-20T01:24:09.345Z,5.34
2016-12-20T01:25:23.520Z,5.34
2016-12-20T01:26:38.659Z,5.34
2016-12-20T01:27:53.897Z,5.33
2016-12-20T01:29:09.543Z,5.32
2016-12-20T01:30:27.195Z,5.27
2016-12-20T01:31:44.440Z,5.23
2016-12-20T01:33:04.351Z,5.18
2016-12-20T01:34:22.615Z,5.13
2016-12-20T01:35:41.354Z,5.11
2016-12-20T01:36:58.682Z,5.05
2016-12-20T01:38:19.329Z,5.02
2016-12-20T01:39:39.104Z,5.02
2016-12-20T01:40:57.585Z,4.99
2016-12-20T01:42:15.400Z,4.96
2016-12-20T01:43:33.010Z,4.94
2016-12-20T01:44:53.831Z,4.92
2016-12-20T01:46:14.317Z,4.89
2016-12-20T01:47:33.619Z,4.84
2016-12-20T01:48:57.285Z,4.81
2016-12-20T01:50:40.583Z,4.74
2016-12-20T01:52:03.399Z,4.64
2016-12-20T01:53:21.415Z,4.58
2016-12-20T01:54:41.526Z,4.54
2016-12-20T01:55:58.769Z,4.51
2016-12-20T01:57:13.293Z,4.51
2016-12-20T01:58:28.195Z,4.45
2016-12-20T01:59:42.505Z,4.41
2016-12-20T02:00:59.878Z,4.37
2016-12-20T02:02:17.115Z,4.34
2016-12-20T02:03:34.419Z,4.3
2016-12-20T02:04:51.801Z,4.25
2016-12-20T02:06:08.247Z,4.2
2016-12-20T02:07:23.017Z,4.16
2016-12-20T02:08:38.953Z,4.13
2016-12-20T02:09:53.702Z,4.14
2016-12-20T02:11:09.211Z,4.12
2016-12-20T02:12:23.962Z,4.1
2016-12-20T02:13:38.900Z,4.08
2016-12-20T02:14:54.087Z,4.1
2016-12-20T02:16:08.787Z,4.09
2016-12-20T02:17:23.799Z,4.07
2016-12-20T02:18:38.697Z,4.05
2016-12-20T02:19:53.669Z,4.04
2016-12-20T02:21:08.829Z,4.01
2016-12-20T02:22:23.307Z,3.99
2016-12-20T02:23:52.855Z,3.96
2016-12-20T02:25:07.430Z,3.93
2016-12-20T02:26:23.161Z,3.89
2016-12-20T02:27:40.309Z,3.88
2016-12-20T02:28:59.210Z,3.9
2016-12-20T02:30:16.580Z,3.89
2016-12-20T02:31:33.316Z,3.87
2016-12-20T02:32:51.090Z,3.83
2016-12-20T02:34:06.491Z,3.79
2016-12-20T02:35:24.400Z,3.75
2016-12-20T02:36:43.745Z,3.74
2016-12-20T02:37:59.367Z,3.76
2016-12-20T02:39:15.143Z,3.78
2016-12-20T02:40:33.524Z,3.78
2016-12-20T02:41:51.552Z,3.77
2016-12-20T02:43:11.279Z,3.72
2016-12-20T02:44:29.948Z,3.71
2016-12-20T02:45:51.068Z,3.72
2016-12-20T02:48:57.123Z,3.67
2016-12-20T02:50:15.338Z,3.63
2016-12-20T02:51:33.411Z,3.59
2016-12-20T02:52:47.884Z,3.56
2016-12-20T02:54:02.192Z,3.54
2016-12-20T02:55:16.311Z,3.53
2016-12-20T02:56:31.363Z,3.55
2016-12-20T02:57:45.833Z,3.56
2016-12-20T02:59:00.130Z,3.54
2016-12-20T03:00:15.633Z,3.49
2016-12-20T03:01:30.048Z,3.43
2016-12-20T03:02:44.308Z,3.41
2016-12-20T03:03:58.467Z,3.41
2016-12-20T03:05:12.872Z,3.39
2016-12-20T03:06:27.173Z,3.37
2016-12-20T03:07:41.581Z,3.34
2016-12-20T03:08:55.989Z,3.3
2016-12-20T03:10:13.248Z,3.3
2016-12-20T03:11:32.592Z,3.3
2016-12-20T03:12:50.934Z,3.31
2016-12-20T03:14:10.637Z,3.31
2016-12-20T03:15:29.423Z,3.32
2016-12-20T03:16:50.024Z,3.34
2016-12-20T03:18:23.122Z,3.33
2016-12-20T03:19:43.940Z,3.32
2016-12-20T03:21:03.005Z,3.32
2016-12-20T03:22:21.998Z,3.33
2016-12-20T03:23:41.161Z,3.32
2016-12-20T03:25:00.440Z,3.32
2016-12-20T03:26:19.309Z,3.3
2016-12-20T03:27:39.721Z,3.27
2016-12-20T03:28:59.024Z,3.24
2016-12-20T03:30:18.683Z,3.25
2016-12-20T03:33:11.995Z,3.24
2016-12-20T03:34:31.122Z,3.2
2016-12-20T03:36:04.111Z,3.18
2016-12-20T03:37:24.260Z,3.18
2016-12-20T03:38:42.900Z,3.21
2016-12-20T03:40:14.372Z,3.22
2016-12-20T03:41:44.079Z,3.22
2016-12-20T03:42:59.914Z,3.22
2016-12-20T03:44:16.337Z,3.23
2016-12-20T03:45:31.914Z,3.26
2016-12-20T03:46:49.516Z,3.3
2016-12-20T03:48:08.080Z,3.33
2016-12-20T03:49:24.224Z,3.36
2016-12-20T03:50:40.635Z,3.39
2016-12-20T03:51:57.811Z,3.36
2016-12-20T03:53:14.185Z,3.36
2016-12-20T03:54:30.866Z,3.34
2016-12-20T03:55:46.311Z,3.33
2016-12-20T03:57:00.419Z,3.33
2016-12-20T03:58:14.737Z,3.35
2016-12-20T03:59:29.184Z,3.35
2016-12-20T04:00:43.812Z,3.35
2016-12-20T04:01:58.998Z,3.34
2016-12-20T04:03:13.118Z,3.35
2016-12-20T04:04:27.952Z,3.37
2016-12-20T04:05:42.679Z,3.34
2016-12-20T04:06:57.859Z,3.33
2016-12-20T04:08:12.569Z,3.3
2016-12-20T04:09:26.622Z,3.29
2016-12-20T04:10:41.449Z,3.3
2016-12-20T04:11:55.921Z,3.29
2016-12-20T04:13:10.440Z,3.28
2016-12-20T04:14:25.335Z,3.27
2016-12-20T04:15:39.725Z,3.29
2016-12-20T04:16:56.513Z,3.27
2016-12-20T04:18:10.840Z,3.24
2016-12-20T04:19:26.102Z,3.21
2016-12-20T04:20:41.302Z,3.17
2016-12-20T04:21:56.277Z,3.12
2016-12-20T04:23:10.892Z,3.09
2016-12-20T04:24:26.480Z,3.03
2016-12-20T04:25:44.202Z,3
2016-12-20T04:27:00.372Z,2.99
2016-12-20T04:28:15.119Z,2.95
2016-12-20T04:29:31.128Z,2.93
2016-12-20T04:30:50.206Z,2.89
2016-12-20T04:32:04.721Z,2.87
2016-12-20T04:33:19.465Z,2.83
2016-12-20T04:34:33.515Z,2.84
2016-12-20T04:35:47.961Z,2.86
2016-12-20T04:37:03.008Z,2.88
2016-12-20T04:38:17.527Z,2.89
2016-12-20T04:39:31.831Z,2.93
2016-12-20T04:40:46.426Z,2.95
2016-12-20T04:42:01.330Z,2.95
2016-12-20T04:43:16.109Z,2.95
2016-12-20T04:44:32.950Z,2.95
2016-12-20T04:45:48.299Z,2.95
2016-12-20T04:47:07.835Z,2.95
2016-12-20T04:48:26.173Z,2.94
2016-12-20T04:49:42.734Z,2.94
2016-12-20T04:50:58.864Z,2.95
2016-12-20T04:52:16.939Z,2.95
2016-12-20T04:53:35.281Z,2.93
2016-12-20T04:54:50.777Z,2.92
2016-12-20T04:56:05.542Z,2.91
2016-12-20T04:57:20.289Z,2.87
2016-12-20T04:58:34.467Z,2.87
2016-12-20T05:00:03.969Z,2.87
2016-12-20T05:01:18.323Z,2.9
2016-12-20T05:02:32.622Z,2.93
2016-12-20T05:03:46.769Z,2.91
2016-12-20T05:05:01.428Z,2.9
2016-12-20T05:06:16.290Z,2.89
2016-12-20T05:07:31.195Z,2.89
2016-12-20T05:08:45.895Z,2.85
2016-12-20T05:10:00.829Z,2.84
2016-12-20T05:11:15.214Z,2.83
2016-12-20T05:12:30.496Z,2.84
2016-12-20T05:13:45.497Z,2.85
2016-12-20T05:15:00.533Z,2.87
2016-12-20T05:16:15.579Z,2.88
2016-12-20T05:17:30.735Z,2.86
2016-12-20T05:18:45.285Z,2.84
2016-12-20T05:19:59.866Z,2.81
2016-12-20T05:22:45.810Z,2.83
2016-12-20T05:24:03.202Z,2.85
2016-12-20T05:25:21.210Z,2.87
2016-12-20T06:56:06.666Z,2.83
2016-12-20T06:57:23.592Z,2.82
2016-12-20T06:58:38.951Z,2.83
2016-12-20T06:59:53.082Z,2.86
2016-12-20T07:01:08.244Z,2.87
2016-12-20T07:02:25.080Z,2.88
2016-12-20T07:03:41.754Z,2.91
2016-12-20T07:05:01.208Z,2.93
2016-12-20T07:06:17.582Z,2.95
2016-12-20T07:07:34.908Z,2.97
2016-12-20T07:08:52.059Z,2.99
2016-12-20T07:10:08.130Z,2.99
2016-12-20T07:11:23.406Z,2.99
2016-12-20T07:12:38.353Z,2.99
2016-12-20T07:13:53.108Z,2.99
2016-12-20T07:22:26.677Z,3.07
2016-12-20T07:23:43.984Z,3.08
2016-12-20T07:25:14.777Z,3.07
2016-12-20T07:26:30.198Z,3.09
2016-12-20T07:27:44.557Z,3.07
2016-12-20T07:29:13.846Z,3.08
2016-12-20T07:30:28.382Z,3.1
2016-12-20T07:31:43.812Z,3.14
2016-12-20T07:32:59.218Z,3.18
2016-12-20T07:34:13.546Z,3.19
2016-12-20T07:35:28.038Z,3.2
2016-12-20T07:36:43.285Z,3.23
2016-12-20T07:37:58.264Z,3.23
2016-12-20T07:39:13.231Z,3.26
2016-12-20T07:40:27.741Z,3.28
2016-12-20T07:41:42.543Z,3.27
2016-12-20T07:42:57.349Z,3.24
2016-12-20T07:44:12.209Z,3.24
2016-12-20T07:45:26.985Z,3.25
2016-12-20T07:46:42.219Z,3.24
2016-12-20T07:47:56.913Z,3.28
2016-12-20T07:49:14.342Z,3.32
2016-12-20T07:50:31.227Z,3.36
2016-12-20T07:51:45.981Z,3.4
2016-12-20T07:53:00.914Z,3.43
2016-12-20T07:54:15.600Z,3.45
2016-12-20T07:55:30.948Z,3.47
2016-12-20T07:56:45.280Z,3.48
2016-12-20T07:58:01.856Z,3.49
2016-12-20T07:59:19.298Z,3.47
2016-12-20T08:00:35.612Z,3.51
2016-12-20T08:01:52.297Z,3.55
2016-12-20T08:03:09.454Z,3.58
2016-12-20T08:04:26.340Z,3.6
2016-12-20T08:05:41.314Z,3.6
2016-12-20T08:06:55.833Z,3.59
2016-12-20T08:08:09.976Z,3.59
2016-12-20T08:09:24.781Z,3.64
2016-12-20T08:10:39.496Z,3.67
2016-12-20T08:11:54.864Z,3.69
2016-12-20T08:13:09.317Z,3.71
2016-12-20T08:14:23.544Z,3.73
2016-12-20T08:15:38.050Z,3.74
2016-12-20T08:16:55.330Z,3.73
2016-12-20T08:18:11.285Z,3.73
2016-12-20T08:19:28.352Z,3.74
2016-12-20T08:20:47.938Z,3.74
2016-12-20T08:22:06.253Z,3.71
2016-12-20T08:23:33.559Z,3.66
2016-12-20T08:24:53.114Z,3.64
2016-12-20T08:26:11.571Z,3.65
2016-12-20T08:27:31.278Z,3.67
2016-12-20T08:28:52.649Z,3.67
2016-12-20T08:30:16.654Z,3.67
2016-12-20T08:31:34.335Z,3.68
2016-12-20T08:32:53.550Z,3.66
2016-12-20T08:34:14.850Z,3.62
2016-12-20T08:35:35.192Z,3.6
2016-12-20T08:36:53.369Z,3.57
2016-12-20T08:38:10.549Z,3.56
2016-12-20T08:39:47.712Z,3.6
2016-12-20T08:42:41.391Z,3.64
2016-12-20T08:43:59.032Z,3.69
2016-12-20T08:45:19.951Z,3.75
2016-12-20T08:46:41.463Z,3.83
2016-12-20T08:48:03.821Z,3.89
2016-12-20T08:49:26.086Z,3.95
2016-12-20T08:50:45.226Z,4.01
2016-12-20T08:52:20.607Z,4.04
2016-12-20T08:53:37.566Z,4.06
2016-12-20T08:54:54.624Z,4.08
2016-12-20T08:56:11.913Z,4.13
2016-12-20T08:57:44.023Z,4.12
2016-12-20T08:59:03.365Z,4.09
2016-12-20T09:00:18.254Z,4.06
2016-12-20T09:01:34.688Z,4.03
2016-12-20T09:02:52.710Z,4.01
2016-12-20T09:04:10.819Z,3.99
2016-12-20T09:05:28.850Z,4.01
2016-12-20T09:06:46.231Z,4.05
2016-12-20T09:08:04.458Z,4.08
2016-12-20T09:09:25.715Z,4.08
2016-12-20T09:10:43.947Z,4.13
2016-12-20T09:12:15.277Z,4.15
2016-12-20T09:13:33.919Z,4.15
2016-12-20T09:14:51.781Z,4.14
2016-12-20T09:16:07.771Z,4.12
2016-12-20T09:17:24.843Z,4.09
2016-12-20T09:18:41.456Z,4.1
2016-12-20T09:19:56.190Z,4.18
2016-12-20T09:21:11.510Z,4.36
2016-12-20T09:22:26.911Z,4.45
2016-12-20T09:23:41.414Z,4.43
2016-12-20T09:24:57.425Z,4.36
2016-12-20T09:26:12.791Z,4.36
2016-12-20T09:27:27.155Z,4.37
2016-12-20T09:28:41.767Z,4.43
2016-12-20T09:29:58.203Z,4.46
2016-12-20T09:31:15.371Z,4.51
2016-12-20T09:32:32.950Z,4.54
2016-12-20T09:33:50.512Z,4.56
2016-12-20T09:35:07.226Z,4.57
2016-12-20T09:36:22.288Z,4.6
2016-12-20T09:37:36.810Z,4.66
2016-12-20T09:39:06.243Z,4.71
2016-12-20T09:40:21.245Z,4.75
2016-12-20T09:41:38.659Z,4.8
2016-12-20T09:42:56.341Z,4.82
2016-12-20T09:44:12.818Z,4.82
2016-12-20T09:45:32.852Z,4.8
2016-12-20T09:46:49.531Z,4.78
2016-12-20T09:48:04.109Z,4.77
2016-12-20T09:49:33.471Z,4.77
2016-12-20T09:50:48.069Z,4.76
2016-12-20T09:52:03.031Z,4.75
2016-12-20T09:53:19.445Z,4.79
2016-12-20T09:54:35.410Z,4.84
2016-12-20T09:55:52.035Z,4.89
2016-12-20T09:57:09.323Z,4.9
2016-12-20T09:58:26.769Z,4.96
2016-12-20T09:59:40.941Z,5
2016-12-20T10:00:55.859Z,5.05
2016-12-20T10:02:13.036Z,5.09
2016-12-20T10:03:30.205Z,5.05
2016-12-20T10:04:48.575Z,5.01
2016-12-20T10:06:06.144Z,4.98
2016-12-20T10:07:21.954Z,4.97
2016-12-20T10:08:38.374Z,5
2016-12-20T10:09:55.097Z,5.04
2016-12-20T10:11:12.178Z,5.06
2016-12-20T10:12:43.181Z,5.12
2016-12-20T10:14:00.166Z,5.14
2016-12-20T10:15:46.095Z,5.19
2016-12-20T10:17:03.297Z,5.24
2016-12-20T10:18:19.091Z,5.26
2016-12-20T10:19:35.018Z,5.28
2016-12-20T10:20:50.788Z,5.31
2016-12-20T10:22:05.315Z,5.3
2016-12-20T10:23:22.223Z,5.3
2016-12-20T10:24:39.545Z,5.33
2016-12-20T10:25:55.516Z,5.35
2016-12-20T10:27:13.413Z,5.37
2016-12-20T10:28:31.202Z,5.37
2016-12-20T10:29:47.538Z,5.39
2016-12-20T10:31:05.107Z,5.41
2016-12-20T10:32:22.617Z,5.41
2016-12-20T10:33:38.196Z,5.38
2016-12-20T10:34:54.619Z,5.35
2016-12-20T10:36:10.738Z,5.34
2016-12-20T10:37:26.500Z,5.24
2016-12-20T10:38:43.851Z,5.15
2016-12-20T10:40:01.089Z,5.1
2016-12-20T10:41:17.431Z,5.05
2016-12-20T10:42:34.713Z,5.03
2016-12-20T10:44:06.459Z,4.98
2016-12-20T10:45:20.938Z,4.94
2016-12-20T10:46:35.382Z,4.86
2016-12-20T10:47:50.493Z,4.82
2016-12-20T10:49:06.016Z,4.81
2016-12-20T10:50:23.764Z,4.82
2016-12-20T10:51:40.752Z,4.85
2016-12-20T10:52:57.637Z,4.9
2016-12-20T10:54:11.833Z,4.98
2016-12-20T10:55:26.941Z,5.1
2016-12-20T10:56:41.721Z,5.18
2016-12-20T10:57:56.047Z,5.16
2016-12-20T10:59:11.321Z,5.12
2016-12-20T11:00:26.283Z,5.12
2016-12-20T11:01:41.422Z,5.16
2016-12-20T11:02:56.863Z,5.18
2016-12-20T11:04:13.421Z,5.26
2016-12-20T11:05:33.558Z,5.36
2016-12-20T11:06:51.772Z,5.41
2016-12-20T11:08:08.356Z,5.44
2016-12-20T11:09:25.428Z,5.48
2016-12-20T11:10:42.745Z,5.49
2016-12-20T11:11:59.504Z,5.5
2016-12-20T11:13:16.666Z,5.52
2016-12-20T11:14:34.818Z,5.57
2016-12-20T11:15:54.388Z,5.62
2016-12-20T11:17:10.605Z,5.63
2016-12-20T11:18:29.804Z,5.61
2016-12-20T11:19:47.973Z,5.58
2016-12-20T11:21:04.756Z,5.55
2016-12-20T11:22:23.027Z,5.5
2016-12-20T11:23:40.027Z,5.51
2016-12-20T11:24:57.851Z,5.5
2016-12-20T11:26:14.970Z,5.48
2016-12-20T11:27:31.289Z,5.48
2016-12-20T11:28:48.050Z,5.52
2016-12-20T11:30:05.835Z,5.55
2016-12-20T11:31:23.653Z,5.52
2016-12-20T11:32:38.534Z,5.49
2016-12-20T11:34:08.261Z,5.5
2016-12-20T11:35:24.969Z,5.49
2016-12-20T11:36:42.186Z,5.47
2016-12-20T11:37:58.209Z,5.46
2016-12-20T11:39:14.243Z,5.43
2016-12-20T11:40:31.950Z,5.46
2016-12-20T11:41:49.464Z,5.49
2016-12-20T11:43:05.867Z,5.53
2016-12-20T11:44:21.077Z,5.59
2016-12-20T11:45:38.765Z,5.61
2016-12-20T11:47:09.389Z,5.67
2016-12-20T11:49:55.347Z,5.71
2016-12-20T11:51:12.524Z,5.75
2016-12-20T11:52:29.935Z,5.76
2016-12-20T11:53:47.148Z,5.76
2016-12-20T11:55:04.280Z,5.76
2016-12-20T11:56:20.945Z,5.75
2016-12-20T11:57:37.773Z,5.67
2016-12-20T11:58:54.548Z,5.64
2016-12-20T12:00:12.285Z,5.65
2016-12-20T12:01:43.409Z,5.66
2016-12-20T12:02:59.051Z,5.67
2016-12-20T12:04:15.153Z,5.64
2016-12-20T12:05:30.001Z,5.62
2016-12-20T12:06:46.796Z,5.6
2016-12-20T12:08:04.058Z,5.63
2016-12-20T12:09:21.566Z,5.61
2016-12-20T12:10:39.752Z,5.53
2016-12-20T12:11:54.677Z,5.51
2016-12-20T12:13:10.640Z,5.49
2016-12-20T12:14:28.027Z,5.48
2016-12-20T12:15:47.573Z,5.42
2016-12-20T12:17:04.114Z,5.39
2016-12-20T12:18:22.405Z,5.41
2016-12-20T12:19:42.946Z,5.42
2016-12-20T12:21:00.475Z,5.46
2016-12-20T12:22:18.668Z,5.52
2016-12-20T12:23:41.428Z,5.63
2016-12-20T12:25:00.138Z,5.7
2016-12-20T12:26:21.535Z,5.76
2016-12-20T12:27:38.518Z,5.81
2016-12-20T12:28:56.147Z,5.85
2016-12-20T12:30:13.441Z,5.91
2016-12-20T12:31:32.509Z,5.96
2016-12-20T12:32:49.960Z,5.99
2016-12-20T12:34:07.059Z,6
2016-12-20T12:35:23.401Z,5.99
2016-12-20T12:36:39.965Z,6
2016-12-20T12:37:56.021Z,5.99
2016-12-20T12:39:11.779Z,5.96
2016-12-20T12:40:28.923Z,5.95
2016-12-20T12:41:44.823Z,5.94
2016-12-20T12:43:00.502Z,5.9
2016-12-20T12:44:17.913Z,5.84
2016-12-20T12:45:34.519Z,5.82
2016-12-20T12:46:51.573Z,5.78
2016-12-20T12:48:08.178Z,5.73
2016-12-20T12:49:25.519Z,5.72
2016-12-20T12:50:42.746Z,5.72
2016-12-20T12:52:00.035Z,5.69
2016-12-20T12:53:17.303Z,5.65
2016-12-20T12:54:34.629Z,5.59
2016-12-20T12:55:51.605Z,5.5
2016-12-20T12:57:08.546Z,5.41
2016-12-20T12:58:25.162Z,5.38
2016-12-20T12:59:42.512Z,5.35
2016-12-20T13:00:59.094Z,5.34
2016-12-20T13:02:16.216Z,5.31
2016-12-20T13:03:31.608Z,5.32
2016-12-20T13:04:49.145Z,5.29
2016-12-20T13:06:05.991Z,5.27
2016-12-20T13:07:22.935Z,5.28
2016-12-20T13:08:39.022Z,5.32
2016-12-20T13:09:55.029Z,5.39
2016-12-20T13:11:10.959Z,5.38
2016-12-20T13:12:28.153Z,5.38
2016-12-20T13:13:45.928Z,5.4
2016-12-20T13:15:02.966Z,5.45
2016-12-20T13:16:19.607Z,5.48
2016-12-20T13:17:36.495Z,5.51
2016-12-20T13:18:52.990Z,5.52
2016-12-20T13:20:10.463Z,5.54
2016-12-20T13:21:26.958Z,5.57
2016-12-20T13:22:42.770Z,5.62
2016-12-20T13:23:57.515Z,5.69
2016-12-20T13:25:12.788Z,5.74
2016-12-20T13:26:28.363Z,5.76
2016-12-20T13:27:44.265Z,5.78
2016-12-20T13:28:59.733Z,5.78
2016-12-20T13:30:14.500Z,5.74
2016-12-20T13:31:32.894Z,5.69
2016-12-20T13:32:49.553Z,5.62
2016-12-20T13:34:06.660Z,5.57
2016-12-20T13:35:24.402Z,5.52
2016-12-20T13:36:42.193Z,5.48
2016-12-20T13:37:59.116Z,5.49
2016-12-20T13:39:16.716Z,5.52
2016-12-20T13:40:31.497Z,5.56
2016-12-20T13:41:48.215Z,5.59
2016-12-20T13:43:03.341Z,5.6
2016-12-20T13:44:18.130Z,5.64
2016-12-20T13:45:37.717Z,5.68
2016-12-20T13:46:53.854Z,5.69
2016-12-20T13:48:08.583Z,5.72
2016-12-20T13:49:24.574Z,5.76
2016-12-20T13:50:41.540Z,5.8
2016-12-20T13:51:58.480Z,5.82
2016-12-20T13:53:16.188Z,5.85
2016-12-20T13:54:33.120Z,5.88
2016-12-20T13:55:50.853Z,5.87
2016-12-20T13:57:05.775Z,5.87
2016-12-20T13:58:21.006Z,5.87
2016-12-20T13:59:36.214Z,5.86
2016-12-20T14:00:51.138Z,5.84
2016-12-20T14:02:06.225Z,5.82
2016-12-20T14:03:20.668Z,5.82
2016-12-20T14:04:36.311Z,5.8
2016-12-20T14:05:52.799Z,5.81
2016-12-20T14:07:08.540Z,5.82
2016-12-20T14:08:23.821Z,5.8
2016-12-20T14:09:39.103Z,5.79
2016-12-20T14:10:54.421Z,5.77
2016-12-20T14:12:10.818Z,5.73
2016-12-20T14:13:26.131Z,5.69
2016-12-20T14:14:41.200Z,5.64
2016-12-20T14:15:58.301Z,5.58
2016-12-20T14:17:16.589Z,5.53
2016-12-20T14:18:33.395Z,5.47
2016-12-20T14:19:50.169Z,5.39
2016-12-20T14:21:07.147Z,5.33
2016-12-20T14:22:23.778Z,5.28
2016-12-20T14:23:41.033Z,5.21
2016-12-20T14:24:59.215Z,5.15
2016-12-20T14:26:16.340Z,5.09
2016-12-20T14:27:32.126Z,5.07
2016-12-20T14:28:49.507Z,5.06
2016-12-20T14:30:07.167Z,5.04
2016-12-20T14:31:24.276Z,5.01
2016-12-20T14:32:41.480Z,4.98
2016-12-20T14:33:57.553Z,4.94
2016-12-20T14:35:14.477Z,4.94
2016-12-20T14:36:30.667Z,4.9
2016-12-20T14:37:45.638Z,4.87
2016-12-20T14:39:00.393Z,4.84
2016-12-20T14:43:14.378Z,4.72
2016-12-20T14:44:31.006Z,4.69
2016-12-20T14:45:48.698Z,4.66
2016-12-20T14:47:05.321Z,4.63
2016-12-20T14:48:22.271Z,4.56
2016-12-20T14:49:39.390Z,4.49
2016-12-20T14:50:57.083Z,4.44
2016-12-20T14:52:12.040Z,4.37
2016-12-20T14:53:28.997Z,4.3
2016-12-20T14:54:46.420Z,4.25
2016-12-20T14:56:04.950Z,4.22
2016-12-20T14:57:22.478Z,4.19
2016-12-20T14:58:39.905Z,4.14
2016-12-20T14:59:58.390Z,4.08
2016-12-20T15:01:16.058Z,4.02
2016-12-20T15:02:33.288Z,4
2016-12-20T15:03:48.671Z,3.99
2016-12-20T15:05:06.277Z,3.98
2016-12-20T15:06:21.595Z,3.97
2016-12-20T15:07:36.734Z,3.94
2016-12-20T15:08:51.111Z,3.92
2016-12-20T15:10:06.452Z,3.92
2016-12-20T15:11:22.089Z,3.91
2016-12-20T15:12:52.568Z,3.91
2016-12-20T15:14:09.061Z,3.86
2016-12-20T15:15:25.802Z,3.84
2016-12-20T15:16:43.862Z,3.84
2016-12-20T15:18:01.933Z,3.82
2016-12-20T15:19:33.885Z,3.81
2016-12-20T15:20:51.042Z,3.78
2016-12-20T15:22:08.408Z,3.77
2016-12-20T15:23:25.888Z,3.75
2016-12-20T15:24:43.804Z,3.74
2016-12-20T15:26:00.355Z,3.71
2016-12-20T15:27:17.688Z,3.69
2016-12-20T15:28:35.017Z,3.67
2016-12-20T15:29:52.437Z,3.65
2016-12-20T15:31:08.245Z,3.62
2016-12-20T15:32:26.157Z,3.58
2016-12-20T15:33:44.128Z,3.56
2016-12-20T15:35:00.595Z,3.56
2016-12-20T15:36:18.005Z,3.57
2016-12-20T15:37:35.107Z,3.59
2016-12-20T15:38:52.141Z,3.6
2016-12-20T15:40:09.935Z,3.62
2016-12-20T15:41:27.319Z,3.62
2016-12-20T15:42:43.756Z,3.63
2016-12-20T15:44:00.948Z,3.65
2016-12-20T15:45:18.833Z,3.64
2016-12-20T15:46:36.177Z,3.64
2016-12-20T15:47:52.991Z,3.63
2016-12-20T15:49:10.100Z,3.65
2016-12-20T15:50:27.181Z,3.66
2016-12-20T15:51:41.907Z,3.71
2016-12-20T15:52:59.220Z,3.74
2016-12-20T15:54:16.296Z,3.75
2016-12-20T15:55:32.236Z,3.78
2016-12-20T15:56:50.446Z,3.8
2016-12-20T15:58:08.909Z,3.84
2016-12-20T15:59:28.209Z,3.85
2016-12-20T16:00:46.475Z,3.86
2016-12-20T16:02:05.087Z,3.89
2016-12-20T16:03:21.152Z,3.92
2016-12-20T16:04:37.836Z,3.95
2016-12-20T16:05:54.554Z,4.01
2016-12-20T16:07:12.591Z,4.04
2016-12-20T16:08:29.323Z,4.07
2016-12-20T16:09:45.911Z,4.09
2016-12-20T16:11:02.762Z,4.12
2016-12-20T16:12:20.442Z,4.17
2016-12-20T16:13:37.437Z,4.2
2016-12-20T16:14:53.296Z,4.22
2016-12-20T16:16:07.471Z,4.24
2016-12-20T16:17:22.217Z,4.22
2016-12-20T16:18:51.758Z,4.19
2016-12-20T16:20:06.717Z,4.16
2016-12-20T16:21:20.864Z,4.16
2016-12-20T16:22:35.439Z,4.12
2016-12-20T16:23:50.289Z,4.09
2016-12-20T16:25:08.016Z,4.06
2016-12-20T16:26:25.007Z,4.05
2016-12-20T16:27:41.388Z,4.05
2016-12-20T16:28:58.850Z,4.06
2016-12-20T16:30:15.985Z,4.07
2016-12-20T16:31:33.735Z,4.09
2016-12-20T16:32:50.860Z,4.09
2016-12-20T16:34:07.764Z,4.06
2016-12-20T16:35:24.612Z,4.03
2016-12-20T16:36:41.185Z,4.03
2016-12-20T16:37:57.855Z,4.03
2016-12-20T16:39:14.419Z,4.04
2016-12-20T16:40:30.355Z,4.04
2016-12-20T16:41:44.870Z,4.05
2016-12-20T16:42:59.331Z,4.05
2016-12-20T16:44:14.877Z,4.07
2016-12-20T16:45:31.397Z,4.08
2016-12-20T16:46:47.567Z,4.07
2016-12-20T16:48:04.450Z,4.08
2016-12-20T16:49:21.584Z,4.08
2016-12-20T16:50:38.390Z,4.07
2016-12-20T16:52:09.599Z,4.06
2016-12-20T16:53:26.240Z,4.03
2016-12-20T16:54:43.577Z,4.01
2016-12-20T16:55:59.525Z,4
2016-12-20T16:57:16.249Z,3.98
2016-12-20T16:58:33.019Z,3.96
2016-12-20T16:59:49.800Z,3.95
2016-12-20T17:01:04.435Z,3.93
2016-12-20T17:02:20.287Z,3.93
2016-12-20T17:03:36.826Z,3.92
2016-12-20T17:04:53.594Z,3.91
2016-12-20T17:06:10.335Z,3.9
2016-12-20T17:07:26.612Z,3.88
2016-12-20T17:08:57.978Z,3.87
2016-12-20T17:10:14.805Z,3.86
2016-12-20T17:11:32.404Z,3.85
2016-12-20T17:12:49.655Z,3.86
2016-12-20T17:14:06.582Z,3.89
2016-12-20T17:15:23.661Z,3.91
2016-12-20T17:16:40.120Z,3.91
2016-12-20T17:17:58.105Z,3.91
2016-12-20T17:19:14.553Z,3.92
2016-12-20T17:20:31.173Z,3.88
2016-12-20T17:21:48.387Z,3.85
2016-12-20T17:23:05.284Z,3.84
2016-12-20T17:24:22.761Z,3.83
2016-12-20T17:25:39.963Z,3.82
2016-12-20T17:26:57.697Z,3.81
2016-12-20T17:28:15.026Z,3.79
2016-12-20T17:29:32.118Z,3.75
2016-12-20T17:30:49.121Z,3.72
2016-12-20T17:32:04.617Z,3.7
2016-12-20T17:33:19.453Z,3.71
2016-12-20T17:34:35.640Z,3.7
2016-12-20T17:35:52.388Z,3.69
2016-12-20T17:37:09.409Z,3.69
2016-12-20T17:38:26.250Z,3.7
2016-12-20T17:39:41.978Z,3.71
2016-12-20T17:41:11.386Z,3.71
2016-12-20T17:42:25.566Z,3.73
2016-12-20T17:43:40.507Z,3.72
2016-12-20T17:44:58.089Z,3.73
2016-12-20T17:46:13.217Z,3.77
2016-12-20T17:47:28.217Z,3.8
2016-12-20T17:48:43.149Z,3.81
2016-12-20T17:49:57.558Z,3.81
2016-12-20T17:51:12.034Z,3.82
2016-12-20T17:52:27.045Z,3.82
2016-12-20T17:53:41.626Z,3.82
2016-12-20T17:54:56.718Z,3.79
2016-12-20T17:56:11.650Z,3.8
2016-12-20T17:57:26.821Z,3.79
2016-12-20T17:58:43.272Z,3.78
2016-12-20T18:00:00.898Z,3.78
2016-12-20T18:01:17.726Z,3.77
2016-12-20T18:02:35.387Z,3.77
2016-12-20T18:03:55.285Z,3.75
2016-12-20T18:05:13.411Z,3.77
2016-12-20T18:06:30.391Z,3.77
2016-12-20T18:07:48.478Z,3.79
2016-12-20T18:09:06.718Z,3.8
2016-12-20T18:10:25.087Z,3.82
2016-12-20T18:11:42.513Z,3.81
2016-12-20T18:13:00.688Z,3.8
2016-12-20T18:14:18.801Z,3.78
2016-12-20T18:15:36.517Z,3.75
2016-12-20T18:16:53.554Z,3.76
2016-12-20T18:18:10.518Z,3.77
2016-12-20T18:19:25.594Z,3.76
2016-12-20T18:20:41.490Z,3.76
2016-12-20T18:21:56.315Z,3.74
2016-12-20T18:23:13.130Z,3.74
2016-12-20T18:24:29.201Z,3.74
2016-12-20T18:25:46.913Z,3.74
2016-12-20T18:27:03.559Z,3.75
2016-12-20T18:28:20.792Z,3.75
2016-12-20T18:29:36.858Z,3.74
2016-12-20T18:30:52.447Z,3.74
2016-12-20T18:32:07.214Z,3.72
2016-12-20T18:33:21.927Z,3.73
2016-12-20T18:34:36.544Z,3.76
2016-12-20T18:35:50.990Z,3.77
2016-12-20T18:37:06.200Z,3.75
2016-12-20T18:38:20.983Z,3.77
2016-12-20T18:39:35.841Z,3.78
2016-12-20T18:40:50.744Z,3.79
2016-12-20T18:42:05.857Z,3.78
2016-12-20T18:43:22.509Z,3.77
2016-12-20T18:44:39.012Z,3.77
2016-12-20T18:45:57.063Z,3.77
2016-12-20T18:47:14.360Z,3.79
2016-12-20T18:48:31.966Z,3.81
2016-12-20T18:49:47.627Z,3.81
2016-12-20T18:51:04.056Z,3.82
2016-12-20T18:52:18.720Z,3.81
2016-12-20T18:53:33.754Z,3.81
2016-12-20T18:54:48.630Z,3.79
2016-12-20T18:56:03.250Z,3.78
2016-12-20T18:57:18.270Z,3.77
2016-12-20T18:58:33.241Z,3.74
2016-12-20T18:59:47.983Z,3.74
2016-12-20T19:01:03.117Z,3.73